sensor_id;sensor_type;location;lat;lon;timestamp;temperature;humidity
47520;DHT22;33252;48.122;11.538;2024-02-23T00:00:25;7.50;99.90
47520;DHT22;33252;48.122;11.538;2024-02-23T00:02:50;7.40;99.90
47520;DHT22;33252;48.122;11.538;2024-02-23T00:05:16;7.40;99.90
47520;DHT22;33252;48.122;11.538;2024-02-23T00:07:41;7.40;99.90
47520;DHT22;33252;48.122;11.538;2024-02-23T00:10:07;7.30;99.90
47520;DHT22;33252;48.122;11.538;2024-02-23T00:12:33;7.30;99.90
47520;DHT22;33252;48.122;11.538;2024-02-23T00:14:58;7.30;99.90
47520;DHT22;33252;48.122;11.538;2024-02-23T00:17:24;7.30;99.90
47520;DHT22;33252;48.122;11.538;2024-02-23T00:19:49;7.30;99.90
47520;DHT22;33252;48.122;11.538;2024-02-23T00:22:15;7.30;99.90
47520;DHT22;33252;48.122;11.538;2024-02-23T00:24:40;7.30;99.90
47520;DHT22;33252;48.122;11.538;2024-02-23T00:27:06;7.30;99.90
47520;DHT22;33252;48.122;11.538;2024-02-23T00:29:31;7.30;99.90
47520;DHT22;33252;48.122;11.538;2024-02-23T00:31:57;7.20;99.90
47520;DHT22;33252;48.122;11.538;2024-02-23T00:34:23;7.20;99.90
47520;DHT22;33252;48.122;11.538;2024-02-23T00:36:48;7.20;99.90
47520;DHT22;33252;48.122;11.538;2024-02-23T00:39:14;7.20;99.90
47520;DHT22;33252;48.122;11.538;2024-02-23T00:41:40;7.20;99.90
47520;DHT22;33252;48.122;11.538;2024-02-23T00:44:05;7.10;99.90
47520;DHT22;33252;48.122;11.538;2024-02-23T00:46:31;7.10;99.90
47520;DHT22;33252;48.122;11.538;2024-02-23T00:48:57;7.20;99.90
47520;DHT22;33252;48.122;11.538;2024-02-23T00:51:23;7.10;99.90
47520;DHT22;33252;48.122;11.538;2024-02-23T00:53:48;7.10;99.90
47520;DHT22;33252;48.122;11.538;2024-02-23T00:56:14;7.10;99.90
47520;DHT22;33252;48.122;11.538;2024-02-23T00:58:39;7.10;99.90
47520;DHT22;33252;48.122;11.538;2024-02-23T01:01:05;7.10;99.90
47520;DHT22;33252;48.122;11.538;2024-02-23T01:03:31;7.00;99.90
47520;DHT22;33252;48.122;11.538;2024-02-23T01:05:57;7.00;99.90
47520;DHT22;33252;48.122;11.538;2024-02-23T01:08:22;7.00;99.90
47520;DHT22;33252;48.122;11.538;2024-02-23T01:10:48;7.00;99.90
47520;DHT22;33252;48.122;11.538;2024-02-23T01:13:13;7.10;99.90
47520;DHT22;33252;48.122;11.538;2024-02-23T01:15:39;7.00;99.90
47520;DHT22;33252;48.122;11.538;2024-02-23T01:18:05;6.90;99.90
47520;DHT22;33252;48.122;11.538;2024-02-23T01:20:34;7.00;99.90
47520;DHT22;33252;48.122;11.538;2024-02-23T01:22:59;7.00;99.90
47520;DHT22;33252;48.122;11.538;2024-02-23T01:25:25;7.00;99.90
47520;DHT22;33252;48.122;11.538;2024-02-23T01:27:50;7.00;99.90
47520;DHT22;33252;48.122;11.538;2024-02-23T01:30:16;7.00;99.90
47520;DHT22;33252;48.122;11.538;2024-02-23T01:32:42;7.10;99.90
47520;DHT22;33252;48.122;11.538;2024-02-23T01:35:08;7.00;99.90
47520;DHT22;33252;48.122;11.538;2024-02-23T01:37:34;7.00;99.90
47520;DHT22;33252;48.122;11.538;2024-02-23T01:40:00;7.00;99.90
47520;DHT22;33252;48.122;11.538;2024-02-23T01:42:25;6.90;99.90
47520;DHT22;33252;48.122;11.538;2024-02-23T01:44:51;6.90;99.90
47520;DHT22;33252;48.122;11.538;2024-02-23T01:47:17;6.90;99.90
47520;DHT22;33252;48.122;11.538;2024-02-23T01:49:45;7.00;99.90
47520;DHT22;33252;48.122;11.538;2024-02-23T01:52:12;6.90;99.90
47520;DHT22;33252;48.122;11.538;2024-02-23T01:54:38;6.80;99.90
47520;DHT22;33252;48.122;11.538;2024-02-23T01:57:04;6.80;99.90
47520;DHT22;33252;48.122;11.538;2024-02-23T01:59:29;6.90;99.90
47520;DHT22;33252;48.122;11.538;2024-02-23T02:01:55;6.80;99.90
47520;DHT22;33252;48.122;11.538;2024-02-23T02:04:21;6.70;99.90
47520;DHT22;33252;48.122;11.538;2024-02-23T02:06:47;6.70;99.90
47520;DHT22;33252;48.122;11.538;2024-02-23T02:09:13;6.70;99.90
47520;DHT22;33252;48.122;11.538;2024-02-23T02:11:46;6.70;99.90
47520;DHT22;33252;48.122;11.538;2024-02-23T02:14:12;6.70;99.90
47520;DHT22;33252;48.122;11.538;2024-02-23T02:16:39;6.70;99.90
47520;DHT22;33252;48.122;11.538;2024-02-23T02:19:04;6.60;99.90
47520;DHT22;33252;48.122;11.538;2024-02-23T02:21:34;6.70;99.90
47520;DHT22;33252;48.122;11.538;2024-02-23T02:24:00;6.70;99.90
47520;DHT22;33252;48.122;11.538;2024-02-23T02:26:25;6.60;99.90
47520;DHT22;33252;48.122;11.538;2024-02-23T02:28:51;6.60;99.90
47520;DHT22;33252;48.122;11.538;2024-02-23T02:31:18;6.60;99.90
47520;DHT22;33252;48.122;11.538;2024-02-23T02:33:43;6.70;99.90
47520;DHT22;33252;48.122;11.538;2024-02-23T02:36:09;6.60;99.90
47520;DHT22;33252;48.122;11.538;2024-02-23T02:38:35;6.50;99.90
47520;DHT22;33252;48.122;11.538;2024-02-23T02:41:00;6.60;99.90
47520;DHT22;33252;48.122;11.538;2024-02-23T02:43:26;6.60;99.90
47520;DHT22;33252;48.122;11.538;2024-02-23T02:45:52;6.60;99.90
47520;DHT22;33252;48.122;11.538;2024-02-23T02:48:17;6.60;99.90
47520;DHT22;33252;48.122;11.538;2024-02-23T02:50:43;6.60;99.90
47520;DHT22;33252;48.122;11.538;2024-02-23T02:53:09;6.60;99.90
47520;DHT22;33252;48.122;11.538;2024-02-23T02:55:36;6.60;99.90
47520;DHT22;33252;48.122;11.538;2024-02-23T02:58:01;6.60;99.90
47520;DHT22;33252;48.122;11.538;2024-02-23T03:00:27;6.60;99.90
47520;DHT22;33252;48.122;11.538;2024-02-23T03:02:53;6.60;99.90
47520;DHT22;33252;48.122;11.538;2024-02-23T03:05:18;6.50;99.90
47520;DHT22;33252;48.122;11.538;2024-02-23T03:07:44;6.60;99.90
47520;DHT22;33252;48.122;11.538;2024-02-23T03:10:10;6.60;99.90
47520;DHT22;33252;48.122;11.538;2024-02-23T03:12:35;6.40;99.90
47520;DHT22;33252;48.122;11.538;2024-02-23T03:15:01;6.40;99.90
47520;DHT22;33252;48.122;11.538;2024-02-23T03:17:28;6.40;99.90
47520;DHT22;33252;48.122;11.538;2024-02-23T03:19:54;6.50;99.90
47520;DHT22;33252;48.122;11.538;2024-02-23T03:22:19;6.50;99.90
47520;DHT22;33252;48.122;11.538;2024-02-23T03:24:45;6.40;99.90
47520;DHT22;33252;48.122;11.538;2024-02-23T03:27:10;6.40;99.90
47520;DHT22;33252;48.122;11.538;2024-02-23T03:29:38;6.40;99.90
47520;DHT22;33252;48.122;11.538;2024-02-23T03:32:04;6.40;99.90
47520;DHT22;33252;48.122;11.538;2024-02-23T03:34:29;6.40;99.90
47520;DHT22;33252;48.122;11.538;2024-02-23T03:36:55;6.40;99.90
47520;DHT22;33252;48.122;11.538;2024-02-23T03:39:20;6.40;99.90
47520;DHT22;33252;48.122;11.538;2024-02-23T03:41:46;6.40;99.90
47520;DHT22;33252;48.122;11.538;2024-02-23T03:44:11;6.30;99.90
47520;DHT22;33252;48.122;11.538;2024-02-23T03:46:37;6.30;99.90
47520;DHT22;33252;48.122;11.538;2024-02-23T03:49:02;6.20;99.90
47520;DHT22;33252;48.122;11.538;2024-02-23T03:51:28;6.20;99.90
47520;DHT22;33252;48.122;11.538;2024-02-23T03:53:53;6.20;99.90
47520;DHT22;33252;48.122;11.538;2024-02-23T03:56:19;6.10;99.90
47520;DHT22;33252;48.122;11.538;2024-02-23T03:58:45;6.00;99.90
47520;DHT22;33252;48.122;11.538;2024-02-23T04:01:10;6.10;99.90
47520;DHT22;33252;48.122;11.538;2024-02-23T04:03:36;6.10;99.90
47520;DHT22;33252;48.122;11.538;2024-02-23T04:06:02;5.90;99.90
47520;DHT22;33252;48.122;11.538;2024-02-23T04:08:27;5.80;99.90
47520;DHT22;33252;48.122;11.538;2024-02-23T04:10:53;5.90;99.90
47520;DHT22;33252;48.122;11.538;2024-02-23T04:13:19;6.00;99.90
47520;DHT22;33252;48.122;11.538;2024-02-23T04:15:45;5.90;99.90
47520;DHT22;33252;48.122;11.538;2024-02-23T04:18:11;5.90;99.90
47520;DHT22;33252;48.122;11.538;2024-02-23T04:20:36;5.90;99.90
47520;DHT22;33252;48.122;11.538;2024-02-23T04:23:02;5.90;99.90
47520;DHT22;33252;48.122;11.538;2024-02-23T04:25:27;5.80;99.90
47520;DHT22;33252;48.122;11.538;2024-02-23T04:27:53;5.70;99.90
47520;DHT22;33252;48.122;11.538;2024-02-23T04:30:18;5.70;99.90
47520;DHT22;33252;48.122;11.538;2024-02-23T04:32:44;5.60;99.90
47520;DHT22;33252;48.122;11.538;2024-02-23T04:35:10;5.70;99.90
47520;DHT22;33252;48.122;11.538;2024-02-23T04:37:35;5.60;99.90
47520;DHT22;33252;48.122;11.538;2024-02-23T04:40:01;5.50;99.90
47520;DHT22;33252;48.122;11.538;2024-02-23T04:42:27;5.50;99.90
47520;DHT22;33252;48.122;11.538;2024-02-23T04:44:53;5.40;99.90
47520;DHT22;33252;48.122;11.538;2024-02-23T04:47:20;5.40;99.90
47520;DHT22;33252;48.122;11.538;2024-02-23T04:49:46;5.50;99.90
47520;DHT22;33252;48.122;11.538;2024-02-23T04:52:11;5.50;99.90
47520;DHT22;33252;48.122;11.538;2024-02-23T04:54:37;5.50;99.90
47520;DHT22;33252;48.122;11.538;2024-02-23T04:57:02;5.40;99.90
47520;DHT22;33252;48.122;11.538;2024-02-23T04:59:28;5.30;99.90
47520;DHT22;33252;48.122;11.538;2024-02-23T05:01:55;5.30;99.90
47520;DHT22;33252;48.122;11.538;2024-02-23T05:04:20;5.20;99.90
47520;DHT22;33252;48.122;11.538;2024-02-23T05:06:46;5.30;99.90
47520;DHT22;33252;48.122;11.538;2024-02-23T05:09:11;5.20;99.90
47520;DHT22;33252;48.122;11.538;2024-02-23T05:11:37;5.30;99.90
47520;DHT22;33252;48.122;11.538;2024-02-23T05:14:03;5.40;99.90
47520;DHT22;33252;48.122;11.538;2024-02-23T05:16:28;5.50;99.90
47520;DHT22;33252;48.122;11.538;2024-02-23T05:18:54;5.40;99.90
47520;DHT22;33252;48.122;11.538;2024-02-23T05:21:19;5.50;99.90
47520;DHT22;33252;48.122;11.538;2024-02-23T05:23:45;5.40;99.90
47520;DHT22;33252;48.122;11.538;2024-02-23T05:26:12;5.50;99.90
47520;DHT22;33252;48.122;11.538;2024-02-23T05:28:37;5.40;99.90
47520;DHT22;33252;48.122;11.538;2024-02-23T05:31:03;5.40;99.90
47520;DHT22;33252;48.122;11.538;2024-02-23T05:33:30;5.50;99.90
47520;DHT22;33252;48.122;11.538;2024-02-23T05:35:55;5.40;99.90
47520;DHT22;33252;48.122;11.538;2024-02-23T05:38:21;5.50;99.90
47520;DHT22;33252;48.122;11.538;2024-02-23T05:40:46;5.50;99.90
47520;DHT22;33252;48.122;11.538;2024-02-23T05:43:13;5.50;99.90
47520;DHT22;33252;48.122;11.538;2024-02-23T05:45:39;5.60;99.90
47520;DHT22;33252;48.122;11.538;2024-02-23T05:48:05;5.60;99.90
47520;DHT22;33252;48.122;11.538;2024-02-23T05:50:30;5.60;99.90
47520;DHT22;33252;48.122;11.538;2024-02-23T05:52:57;5.60;99.90
47520;DHT22;33252;48.122;11.538;2024-02-23T05:55:23;5.70;99.90
47520;DHT22;33252;48.122;11.538;2024-02-23T05:57:49;5.60;99.90
47520;DHT22;33252;48.122;11.538;2024-02-23T06:00:16;5.60;99.90
47520;DHT22;33252;48.122;11.538;2024-02-23T06:02:44;5.50;99.90
47520;DHT22;33252;48.122;11.538;2024-02-23T06:05:11;5.50;99.90
47520;DHT22;33252;48.122;11.538;2024-02-23T06:07:36;5.50;99.90
47520;DHT22;33252;48.122;11.538;2024-02-23T06:10:02;5.50;99.90
47520;DHT22;33252;48.122;11.538;2024-02-23T06:12:28;5.50;99.90
47520;DHT22;33252;48.122;11.538;2024-02-23T06:14:53;5.60;99.90
47520;DHT22;33252;48.122;11.538;2024-02-23T06:17:20;5.50;99.90
47520;DHT22;33252;48.122;11.538;2024-02-23T06:19:46;5.50;99.90
47520;DHT22;33252;48.122;11.538;2024-02-23T06:22:11;5.50;99.90
47520;DHT22;33252;48.122;11.538;2024-02-23T06:24:37;5.50;99.90
47520;DHT22;33252;48.122;11.538;2024-02-23T06:27:03;5.50;99.90
47520;DHT22;33252;48.122;11.538;2024-02-23T06:29:29;5.60;99.90
47520;DHT22;33252;48.122;11.538;2024-02-23T06:31:55;5.60;99.90
47520;DHT22;33252;48.122;11.538;2024-02-23T06:34:21;5.70;99.90
47520;DHT22;33252;48.122;11.538;2024-02-23T06:36:46;5.50;99.90
47520;DHT22;33252;48.122;11.538;2024-02-23T06:39:12;5.50;99.90
47520;DHT22;33252;48.122;11.538;2024-02-23T06:41:38;5.60;99.90
47520;DHT22;33252;48.122;11.538;2024-02-23T06:44:04;5.60;99.90
47520;DHT22;33252;48.122;11.538;2024-02-23T06:46:30;5.60;99.90
47520;DHT22;33252;48.122;11.538;2024-02-23T06:48:55;5.60;99.90
47520;DHT22;33252;48.122;11.538;2024-02-23T06:51:21;5.60;99.90
47520;DHT22;33252;48.122;11.538;2024-02-23T06:53:47;5.60;99.90
47520;DHT22;33252;48.122;11.538;2024-02-23T06:56:12;5.70;99.90
47520;DHT22;33252;48.122;11.538;2024-02-23T06:58:38;5.70;99.90
47520;DHT22;33252;48.122;11.538;2024-02-23T07:01:04;5.50;99.90
47520;DHT22;33252;48.122;11.538;2024-02-23T07:03:32;5.60;99.90
47520;DHT22;33252;48.122;11.538;2024-02-23T07:05:58;5.70;99.90
47520;DHT22;33252;48.122;11.538;2024-02-23T07:08:23;5.70;99.90
47520;DHT22;33252;48.122;11.538;2024-02-23T07:10:49;5.70;99.90
47520;DHT22;33252;48.122;11.538;2024-02-23T07:13:15;5.60;99.90
47520;DHT22;33252;48.122;11.538;2024-02-23T07:15:40;5.70;99.90
47520;DHT22;33252;48.122;11.538;2024-02-23T07:18:06;5.60;99.90
47520;DHT22;33252;48.122;11.538;2024-02-23T07:20:35;5.70;99.90
47520;DHT22;33252;48.122;11.538;2024-02-23T07:23:00;5.60;99.90
47520;DHT22;33252;48.122;11.538;2024-02-23T07:25:26;5.70;99.90
47520;DHT22;33252;48.122;11.538;2024-02-23T07:27:52;5.70;99.90
47520;DHT22;33252;48.122;11.538;2024-02-23T07:30:17;5.60;99.90
47520;DHT22;33252;48.122;11.538;2024-02-23T07:32:43;5.60;99.90
47520;DHT22;33252;48.122;11.538;2024-02-23T07:35:10;5.60;99.90
47520;DHT22;33252;48.122;11.538;2024-02-23T07:37:38;5.60;99.90
47520;DHT22;33252;48.122;11.538;2024-02-23T07:40:04;5.60;99.90
47520;DHT22;33252;48.122;11.538;2024-02-23T07:42:31;5.60;99.90
47520;DHT22;33252;48.122;11.538;2024-02-23T07:44:57;5.60;99.90
47520;DHT22;33252;48.122;11.538;2024-02-23T07:47:24;5.60;99.90
47520;DHT22;33252;48.122;11.538;2024-02-23T07:49:49;5.50;99.90
47520;DHT22;33252;48.122;11.538;2024-02-23T07:52:15;5.60;99.90
47520;DHT22;33252;48.122;11.538;2024-02-23T07:54:40;5.60;99.90
47520;DHT22;33252;48.122;11.538;2024-02-23T07:57:06;5.60;99.90
47520;DHT22;33252;48.122;11.538;2024-02-23T07:59:32;5.60;99.90
47520;DHT22;33252;48.122;11.538;2024-02-23T08:01:58;5.70;99.90
47520;DHT22;33252;48.122;11.538;2024-02-23T08:04:24;5.70;99.90
47520;DHT22;33252;48.122;11.538;2024-02-23T08:06:49;5.60;99.90
47520;DHT22;33252;48.122;11.538;2024-02-23T08:09:16;5.60;99.90
47520;DHT22;33252;48.122;11.538;2024-02-23T08:11:42;5.60;99.90
47520;DHT22;33252;48.122;11.538;2024-02-23T08:14:07;5.70;99.90
47520;DHT22;33252;48.122;11.538;2024-02-23T08:16:33;5.60;99.90
47520;DHT22;33252;48.122;11.538;2024-02-23T08:18:59;5.70;99.90
47520;DHT22;33252;48.122;11.538;2024-02-23T08:21:25;5.70;99.90
47520;DHT22;33252;48.122;11.538;2024-02-23T08:23:52;5.70;99.90
47520;DHT22;33252;48.122;11.538;2024-02-23T08:26:17;5.70;99.90
47520;DHT22;33252;48.122;11.538;2024-02-23T08:28:43;5.70;99.90
47520;DHT22;33252;48.122;11.538;2024-02-23T08:31:09;5.80;99.90
47520;DHT22;33252;48.122;11.538;2024-02-23T08:33:34;5.90;99.90
47520;DHT22;33252;48.122;11.538;2024-02-23T08:36:00;5.80;99.90
47520;DHT22;33252;48.122;11.538;2024-02-23T08:38:25;5.90;99.90
47520;DHT22;33252;48.122;11.538;2024-02-23T08:40:51;5.90;99.90
47520;DHT22;33252;48.122;11.538;2024-02-23T08:43:16;6.00;99.90
47520;DHT22;33252;48.122;11.538;2024-02-23T08:45:42;6.00;99.90
47520;DHT22;33252;48.122;11.538;2024-02-23T08:48:08;6.00;99.90
47520;DHT22;33252;48.122;11.538;2024-02-23T08:50:34;6.00;99.90
47520;DHT22;33252;48.122;11.538;2024-02-23T08:52:59;6.00;99.90
47520;DHT22;33252;48.122;11.538;2024-02-23T08:55:25;5.90;99.90
47520;DHT22;33252;48.122;11.538;2024-02-23T08:57:50;6.00;99.90
47520;DHT22;33252;48.122;11.538;2024-02-23T09:00:16;5.90;99.90
47520;DHT22;33252;48.122;11.538;2024-02-23T09:02:42;5.90;99.90
47520;DHT22;33252;48.122;11.538;2024-02-23T09:05:09;6.00;99.90
47520;DHT22;33252;48.122;11.538;2024-02-23T09:07:35;5.90;99.90
47520;DHT22;33252;48.122;11.538;2024-02-23T09:10:01;6.00;99.90
47520;DHT22;33252;48.122;11.538;2024-02-23T09:12:27;6.00;99.90
47520;DHT22;33252;48.122;11.538;2024-02-23T09:14:52;6.00;99.90
47520;DHT22;33252;48.122;11.538;2024-02-23T09:17:18;6.00;99.90
47520;DHT22;33252;48.122;11.538;2024-02-23T09:19:45;6.00;99.90
47520;DHT22;33252;48.122;11.538;2024-02-23T09:22:11;6.00;99.90
47520;DHT22;33252;48.122;11.538;2024-02-23T09:24:40;6.00;99.90
47520;DHT22;33252;48.122;11.538;2024-02-23T09:27:06;6.00;99.90
47520;DHT22;33252;48.122;11.538;2024-02-23T09:29:32;5.90;99.90
47520;DHT22;33252;48.122;11.538;2024-02-23T09:31:58;5.90;99.90
47520;DHT22;33252;48.122;11.538;2024-02-23T09:34:24;5.80;99.90
47520;DHT22;33252;48.122;11.538;2024-02-23T09:36:50;5.90;99.90
47520;DHT22;33252;48.122;11.538;2024-02-23T09:39:16;5.80;99.90
47520;DHT22;33252;48.122;11.538;2024-02-23T09:41:42;5.90;99.90
47520;DHT22;33252;48.122;11.538;2024-02-23T09:44:08;5.90;99.90
47520;DHT22;33252;48.122;11.538;2024-02-23T09:46:36;5.80;99.90
47520;DHT22;33252;48.122;11.538;2024-02-23T09:49:03;5.80;99.90
47520;DHT22;33252;48.122;11.538;2024-02-23T09:51:29;5.90;99.90
47520;DHT22;33252;48.122;11.538;2024-02-23T09:53:55;5.90;99.90
47520;DHT22;33252;48.122;11.538;2024-02-23T09:56:24;6.00;99.90
47520;DHT22;33252;48.122;11.538;2024-02-23T09:58:52;5.90;99.90
47520;DHT22;33252;48.122;11.538;2024-02-23T10:01:28;5.90;99.90
47520;DHT22;33252;48.122;11.538;2024-02-23T10:03:57;5.90;99.90
47520;DHT22;33252;48.122;11.538;2024-02-23T10:06:24;5.90;99.90
47520;DHT22;33252;48.122;11.538;2024-02-23T10:08:50;5.80;99.90
47520;DHT22;33252;48.122;11.538;2024-02-23T10:11:18;5.80;99.90
47520;DHT22;33252;48.122;11.538;2024-02-23T10:13:44;5.80;99.90
47520;DHT22;33252;48.122;11.538;2024-02-23T10:16:10;5.80;99.90
47520;DHT22;33252;48.122;11.538;2024-02-23T10:18:38;5.80;99.90
47520;DHT22;33252;48.122;11.538;2024-02-23T10:21:05;5.80;99.90
47520;DHT22;33252;48.122;11.538;2024-02-23T10:23:30;5.80;99.90
47520;DHT22;33252;48.122;11.538;2024-02-23T10:25:56;5.80;99.90
47520;DHT22;33252;48.122;11.538;2024-02-23T10:28:22;5.80;99.90
47520;DHT22;33252;48.122;11.538;2024-02-23T10:30:48;5.90;99.90
47520;DHT22;33252;48.122;11.538;2024-02-23T10:33:14;5.90;99.90
47520;DHT22;33252;48.122;11.538;2024-02-23T10:35:40;5.90;99.90
47520;DHT22;33252;48.122;11.538;2024-02-23T10:38:08;5.90;99.90
47520;DHT22;33252;48.122;11.538;2024-02-23T10:40:39;5.90;99.90
47520;DHT22;33252;48.122;11.538;2024-02-23T10:43:12;5.90;99.90
47520;DHT22;33252;48.122;11.538;2024-02-23T10:45:39;5.80;99.90
47520;DHT22;33252;48.122;11.538;2024-02-23T10:48:07;5.80;99.90
47520;DHT22;33252;48.122;11.538;2024-02-23T10:50:34;5.70;99.90
47520;DHT22;33252;48.122;11.538;2024-02-23T10:53:00;5.80;99.90
47520;DHT22;33252;48.122;11.538;2024-02-23T10:55:28;5.90;99.90
47520;DHT22;33252;48.122;11.538;2024-02-23T10:57:55;5.80;99.90
47520;DHT22;33252;48.122;11.538;2024-02-23T11:00:22;5.80;99.90
47520;DHT22;33252;48.122;11.538;2024-02-23T11:02:51;5.90;99.90
47520;DHT22;33252;48.122;11.538;2024-02-23T11:05:18;5.80;99.90
47520;DHT22;33252;48.122;11.538;2024-02-23T11:07:46;5.80;99.90
47520;DHT22;33252;48.122;11.538;2024-02-23T11:10:15;5.60;99.90
47520;DHT22;33252;48.122;11.538;2024-02-23T11:12:41;5.70;99.90
47520;DHT22;33252;48.122;11.538;2024-02-23T11:15:06;5.60;99.90
47520;DHT22;33252;48.122;11.538;2024-02-23T11:17:34;5.50;99.90
47520;DHT22;33252;48.122;11.538;2024-02-23T11:20:04;5.60;99.90
47520;DHT22;33252;48.122;11.538;2024-02-23T11:22:36;5.60;99.90
47520;DHT22;33252;48.122;11.538;2024-02-23T11:25:03;5.60;99.90
47520;DHT22;33252;48.122;11.538;2024-02-23T11:27:31;5.70;99.90
47520;DHT22;33252;48.122;11.538;2024-02-23T11:30:05;5.60;99.90
47520;DHT22;33252;48.122;11.538;2024-02-23T11:32:38;5.60;99.90
47520;DHT22;33252;48.122;11.538;2024-02-23T11:35:06;5.70;99.90
47520;DHT22;33252;48.122;11.538;2024-02-23T11:37:31;5.60;99.90
47520;DHT22;33252;48.122;11.538;2024-02-23T11:39:59;5.60;99.90
47520;DHT22;33252;48.122;11.538;2024-02-23T11:42:26;5.70;99.90
47520;DHT22;33252;48.122;11.538;2024-02-23T11:44:52;5.50;99.90
47520;DHT22;33252;48.122;11.538;2024-02-23T11:47:19;5.50;99.90
47520;DHT22;33252;48.122;11.538;2024-02-23T11:49:44;5.40;99.90
47520;DHT22;33252;48.122;11.538;2024-02-23T11:52:10;5.50;99.90
47520;DHT22;33252;48.122;11.538;2024-02-23T11:54:37;5.60;99.90
47520;DHT22;33252;48.122;11.538;2024-02-23T11:57:03;5.40;99.90
47520;DHT22;33252;48.122;11.538;2024-02-23T11:59:29;5.40;99.90
47520;DHT22;33252;48.122;11.538;2024-02-23T12:01:54;5.30;99.90
47520;DHT22;33252;48.122;11.538;2024-02-23T12:04:20;5.30;99.90
47520;DHT22;33252;48.122;11.538;2024-02-23T12:06:45;5.20;99.90
47520;DHT22;33252;48.122;11.538;2024-02-23T12:09:12;5.20;99.90
47520;DHT22;33252;48.122;11.538;2024-02-23T12:11:38;5.10;99.90
47520;DHT22;33252;48.122;11.538;2024-02-23T12:14:05;5.00;99.90
47520;DHT22;33252;48.122;11.538;2024-02-23T12:16:34;5.10;99.90
47520;DHT22;33252;48.122;11.538;2024-02-23T12:19:03;5.20;99.90
47520;DHT22;33252;48.122;11.538;2024-02-23T12:21:29;5.20;99.90
47520;DHT22;33252;48.122;11.538;2024-02-23T12:23:54;5.20;99.90
47520;DHT22;33252;48.122;11.538;2024-02-23T12:26:20;5.30;99.90
47520;DHT22;33252;48.122;11.538;2024-02-23T12:28:46;5.30;99.90
47520;DHT22;33252;48.122;11.538;2024-02-23T12:31:12;5.20;99.90
47520;DHT22;33252;48.122;11.538;2024-02-23T12:33:39;5.30;99.90
47520;DHT22;33252;48.122;11.538;2024-02-23T12:36:07;5.20;99.90
47520;DHT22;33252;48.122;11.538;2024-02-23T12:38:33;5.30;99.90
47520;DHT22;33252;48.122;11.538;2024-02-23T12:41:00;5.40;99.90
47520;DHT22;33252;48.122;11.538;2024-02-23T12:43:26;5.50;99.90
47520;DHT22;33252;48.122;11.538;2024-02-23T12:45:56;5.20;99.90
47520;DHT22;33252;48.122;11.538;2024-02-23T12:48:22;5.30;99.90
47520;DHT22;33252;48.122;11.538;2024-02-23T12:50:48;5.40;99.90
47520;DHT22;33252;48.122;11.538;2024-02-23T12:56:02;5.20;99.90
47520;DHT22;33252;48.122;11.538;2024-02-23T12:58:28;5.20;99.90
47520;DHT22;33252;48.122;11.538;2024-02-23T13:00:54;5.20;99.90
47520;DHT22;33252;48.122;11.538;2024-02-23T13:03:20;5.30;99.90
47520;DHT22;33252;48.122;11.538;2024-02-23T13:05:45;5.20;99.90
47520;DHT22;33252;48.122;11.538;2024-02-23T13:08:11;5.20;99.90
47520;DHT22;33252;48.122;11.538;2024-02-23T13:10:37;5.20;99.90
47520;DHT22;33252;48.122;11.538;2024-02-23T13:13:03;5.30;99.90
47520;DHT22;33252;48.122;11.538;2024-02-23T13:15:28;5.40;99.90
47520;DHT22;33252;48.122;11.538;2024-02-23T13:17:54;5.50;99.90
47520;DHT22;33252;48.122;11.538;2024-02-23T13:20:19;5.40;99.90
47520;DHT22;33252;48.122;11.538;2024-02-23T13:22:45;5.50;99.90
47520;DHT22;33252;48.122;11.538;2024-02-23T13:25:11;5.40;99.90
47520;DHT22;33252;48.122;11.538;2024-02-23T13:27:36;5.30;99.90
47520;DHT22;33252;48.122;11.538;2024-02-23T13:30:03;5.20;99.90
47520;DHT22;33252;48.122;11.538;2024-02-23T13:32:28;5.10;99.90
47520;DHT22;33252;48.122;11.538;2024-02-23T13:34:54;5.20;99.90
47520;DHT22;33252;48.122;11.538;2024-02-23T13:37:20;5.20;99.90
47520;DHT22;33252;48.122;11.538;2024-02-23T13:39:45;5.10;99.90
47520;DHT22;33252;48.122;11.538;2024-02-23T13:42:11;5.10;99.90
47520;DHT22;33252;48.122;11.538;2024-02-23T13:44:36;5.10;99.90
47520;DHT22;33252;48.122;11.538;2024-02-23T13:47:02;5.10;99.90
47520;DHT22;33252;48.122;11.538;2024-02-23T13:49:28;5.10;99.90
47520;DHT22;33252;48.122;11.538;2024-02-23T13:51:54;5.10;99.90
47520;DHT22;33252;48.122;11.538;2024-02-23T13:54:20;5.10;99.90
47520;DHT22;33252;48.122;11.538;2024-02-23T13:56:46;5.10;99.90
47520;DHT22;33252;48.122;11.538;2024-02-23T13:59:12;5.10;99.90
47520;DHT22;33252;48.122;11.538;2024-02-23T14:01:38;5.20;99.90
47520;DHT22;33252;48.122;11.538;2024-02-23T14:04:07;5.10;99.90
47520;DHT22;33252;48.122;11.538;2024-02-23T14:06:35;5.10;99.90
47520;DHT22;33252;48.122;11.538;2024-02-23T14:09:01;5.10;99.90
47520;DHT22;33252;48.122;11.538;2024-02-23T14:11:29;5.10;99.90
47520;DHT22;33252;48.122;11.538;2024-02-23T14:13:55;5.00;99.90
47520;DHT22;33252;48.122;11.538;2024-02-23T14:16:21;5.00;99.90
47520;DHT22;33252;48.122;11.538;2024-02-23T14:18:46;5.10;99.90
47520;DHT22;33252;48.122;11.538;2024-02-23T14:21:12;5.00;99.90
47520;DHT22;33252;48.122;11.538;2024-02-23T14:23:39;5.00;99.90
47520;DHT22;33252;48.122;11.538;2024-02-23T14:26:05;5.00;99.90
47520;DHT22;33252;48.122;11.538;2024-02-23T14:28:30;5.00;99.90
47520;DHT22;33252;48.122;11.538;2024-02-23T14:30:56;5.00;99.90
47520;DHT22;33252;48.122;11.538;2024-02-23T14:33:21;5.00;99.90
47520;DHT22;33252;48.122;11.538;2024-02-23T14:35:47;5.00;99.90
47520;DHT22;33252;48.122;11.538;2024-02-23T14:38:14;4.90;99.90
47520;DHT22;33252;48.122;11.538;2024-02-23T14:40:40;4.80;99.90
47520;DHT22;33252;48.122;11.538;2024-02-23T14:43:06;4.70;99.90
47520;DHT22;33252;48.122;11.538;2024-02-23T14:45:31;4.80;99.90
47520;DHT22;33252;48.122;11.538;2024-02-23T14:47:57;4.80;99.90
47520;DHT22;33252;48.122;11.538;2024-02-23T14:50:23;4.80;99.90
47520;DHT22;33252;48.122;11.538;2024-02-23T14:52:49;4.80;99.90
47520;DHT22;33252;48.122;11.538;2024-02-23T14:55:15;4.80;99.90
47520;DHT22;33252;48.122;11.538;2024-02-23T14:57:41;4.80;99.90
47520;DHT22;33252;48.122;11.538;2024-02-23T15:00:07;4.80;99.90
47520;DHT22;33252;48.122;11.538;2024-02-23T15:02:33;4.80;99.90
47520;DHT22;33252;48.122;11.538;2024-02-23T15:04:58;4.70;99.90
47520;DHT22;33252;48.122;11.538;2024-02-23T15:07:24;4.70;99.90
47520;DHT22;33252;48.122;11.538;2024-02-23T15:09:49;4.70;99.90
47520;DHT22;33252;48.122;11.538;2024-02-23T15:12:15;4.70;99.90
47520;DHT22;33252;48.122;11.538;2024-02-23T15:14:41;4.80;99.90
47520;DHT22;33252;48.122;11.538;2024-02-23T15:17:07;4.80;99.90
47520;DHT22;33252;48.122;11.538;2024-02-23T15:19:33;4.90;99.90
47520;DHT22;33252;48.122;11.538;2024-02-23T15:21:59;4.90;99.90
47520;DHT22;33252;48.122;11.538;2024-02-23T15:24:24;4.80;99.90